createdAt,value
2018-05-25T00:02:01.001Z,8.80
2018-05-25T00:04:28.520Z,8.50
2018-05-25T00:06:56.128Z,8.40
2018-05-25T00:09:23.689Z,8.97
2018-05-25T00:11:51.213Z,7.80
2018-05-25T00:14:18.744Z,8.37
2018-05-25T00:16:46.256Z,8.10
2018-05-25T00:19:13.791Z,7.70
2018-05-25T00:21:41.355Z,7.80
2018-05-25T00:24:08.923Z,7.00
2018-05-25T00:26:36.451Z,8.00
2018-05-25T00:29:03.974Z,8.27
2018-05-25T00:31:31.508Z,8.10
2018-05-25T00:33:59.017Z,8.40
2018-05-25T00:36:26.562Z,8.57
2018-05-25T00:38:54.863Z,10.10
2018-05-25T00:41:22.364Z,9.80
2018-05-25T00:43:49.973Z,9.87
2018-05-25T00:46:17.485Z,8.70
2018-05-25T00:48:45.085Z,8.77
2018-05-25T00:51:13.370Z,10.20
2018-05-25T00:53:40.900Z,9.33
2018-05-25T00:56:09.186Z,9.93
2018-05-25T00:58:37.541Z,10.60
2018-05-25T01:01:05.080Z,10.70
2018-05-25T01:03:32.613Z,11.17
2018-05-25T01:06:00.156Z,10.70
2018-05-25T01:08:27.703Z,10.60
2018-05-25T01:10:55.262Z,10.90
2018-05-25T01:13:23.560Z,10.33
2018-05-25T01:15:51.113Z,11.13
2018-05-25T01:18:18.683Z,10.47
2018-05-25T01:20:46.307Z,9.80
2018-05-25T01:23:14.624Z,10.77
2018-05-25T01:25:42.922Z,12.00
2018-05-25T01:28:10.497Z,10.70
2018-05-25T01:30:38.014Z,9.90
2018-05-25T01:33:05.610Z,10.37
2018-05-25T01:35:33.131Z,9.83
2018-05-25T01:38:00.656Z,10.70
2018-05-25T01:40:28.966Z,10.43
2018-05-25T01:42:56.461Z,8.57
2018-05-25T01:45:24.041Z,9.20
2018-05-25T01:47:51.561Z,10.00
2018-05-25T01:50:19.081Z,8.67
2018-05-25T01:52:46.640Z,9.30
2018-05-25T01:55:14.183Z,10.60
2018-05-25T01:57:41.714Z,10.60
2018-05-25T02:00:09.250Z,8.50
2018-05-25T02:02:36.747Z,9.00
2018-05-25T02:05:04.261Z,8.40
2018-05-25T02:07:31.794Z,8.63
2018-05-25T02:09:59.369Z,11.33
2018-05-25T02:12:26.896Z,11.13
2018-05-25T02:14:55.172Z,9.97
2018-05-25T02:17:23.468Z,11.43
2018-05-25T02:19:51.030Z,11.10
2018-05-25T02:22:18.550Z,11.70
2018-05-25T02:24:46.161Z,11.27
2018-05-25T02:27:13.672Z,10.97
2018-05-25T02:29:41.237Z,11.07
2018-05-25T02:32:08.774Z,11.80
2018-05-25T02:34:36.313Z,12.40
2018-05-25T02:37:03.847Z,12.50
2018-05-25T02:39:31.435Z,13.13
2018-05-25T02:41:58.937Z,17.60
2018-05-25T02:44:26.528Z,18.70
2018-05-25T02:46:54.045Z,15.30
2018-05-25T02:49:21.596Z,17.17
2018-05-25T02:51:49.097Z,18.63
2018-05-25T02:54:16.653Z,19.33
2018-05-25T02:56:44.208Z,20.10
2018-05-25T02:59:11.736Z,18.00
2018-05-25T03:01:39.328Z,19.23
2018-05-25T03:04:07.602Z,20.10
2018-05-25T03:06:35.117Z,21.47
2018-05-25T03:09:02.629Z,22.87
2018-05-25T03:11:30.925Z,21.87
2018-05-25T03:13:58.454Z,21.87
2018-05-25T03:16:26.750Z,20.80
2018-05-25T03:18:54.337Z,22.47
2018-05-25T03:21:21.897Z,19.93
2018-05-25T03:23:49.455Z,19.53
2018-05-25T03:26:16.994Z,19.50
2018-05-25T03:28:44.531Z,20.20
2018-05-25T03:31:12.110Z,17.10
2018-05-25T03:33:39.683Z,17.70
2018-05-25T03:36:07.226Z,17.93
2018-05-25T03:38:34.755Z,18.80
2018-05-25T03:41:03.118Z,18.33
2018-05-25T03:43:30.641Z,19.20
2018-05-25T03:45:58.162Z,17.77
2018-05-25T03:48:25.665Z,16.73
2018-05-25T03:50:53.210Z,17.20
2018-05-25T03:53:20.737Z,17.87
2018-05-25T03:55:48.239Z,15.43
2018-05-25T03:58:15.800Z,14.70
2018-05-25T04:00:55.305Z,14.27
2018-05-25T04:23:58.769Z,10.67
2018-05-25T04:26:26.397Z,10.57
2018-05-25T04:28:53.936Z,9.90
2018-05-25T04:31:22.211Z,9.47
2018-05-25T04:33:50.466Z,9.40
2018-05-25T04:36:17.992Z,9.20
2018-05-25T04:38:45.528Z,9.33
2018-05-25T04:41:13.062Z,8.10
2018-05-25T04:43:41.379Z,10.43
2018-05-25T04:46:08.897Z,18.93
2018-05-25T04:48:37.201Z,15.37
2018-05-25T04:51:04.751Z,7.30
2018-05-25T04:53:32.261Z,8.23
2018-05-25T04:55:59.806Z,7.70
2018-05-25T04:58:27.333Z,6.70
2018-05-25T05:00:54.886Z,8.20
2018-05-25T05:03:22.433Z,8.60
2018-05-25T05:05:50.756Z,7.57
2018-05-25T05:08:18.295Z,7.97
2018-05-25T05:10:45.792Z,7.13
2018-05-25T05:13:13.310Z,6.50
2018-05-25T05:15:40.829Z,6.40
2018-05-25T05:18:08.358Z,7.50
2018-05-25T05:20:35.876Z,6.53
2018-05-25T05:23:03.431Z,6.87
2018-05-25T05:25:32.523Z,8.53
2018-05-25T05:28:00.822Z,8.47
2018-05-25T05:30:28.373Z,7.47
2018-05-25T05:32:55.937Z,7.00
2018-05-25T05:35:23.475Z,7.40
2018-05-25T05:37:51.742Z,6.33
2018-05-25T05:40:20.036Z,5.63
2018-05-25T05:42:47.535Z,6.50
2018-05-25T05:45:15.025Z,6.63
2018-05-25T05:47:42.570Z,6.20
2018-05-25T05:50:10.088Z,5.90
2018-05-25T05:52:37.620Z,6.10
2018-05-25T05:55:05.142Z,6.53
2018-05-25T05:57:32.714Z,6.50
2018-05-25T06:00:00.316Z,6.27
2018-05-25T06:02:27.809Z,5.83
2018-05-25T06:04:55.350Z,6.20
2018-05-25T06:07:22.890Z,6.03
2018-05-25T06:09:50.425Z,6.60
2018-05-25T06:12:18.689Z,6.23
2018-05-25T06:14:46.978Z,6.63
2018-05-25T06:17:15.244Z,6.60
2018-05-25T06:19:43.570Z,6.60
2018-05-25T06:22:11.115Z,5.90
2018-05-25T06:24:38.634Z,6.30
2018-05-25T06:27:06.959Z,5.80
2018-05-25T06:29:34.473Z,5.93
2018-05-25T06:32:02.016Z,6.00
2018-05-25T06:34:29.586Z,6.50
2018-05-25T06:36:57.116Z,6.13
2018-05-25T06:39:24.643Z,6.00
2018-05-25T06:41:52.150Z,5.77
2018-05-25T06:44:19.680Z,6.13
2018-05-25T06:46:47.185Z,6.47
2018-05-25T06:49:15.498Z,6.40
2018-05-25T06:51:43.030Z,6.37
2018-05-25T06:54:11.346Z,5.90
2018-05-25T06:56:38.855Z,5.83
2018-05-25T06:59:07.138Z,5.90
2018-05-25T07:01:35.406Z,5.70
2018-05-25T07:04:03.751Z,5.10
2018-05-25T07:06:31.289Z,5.10
2018-05-25T07:08:58.792Z,5.43
2018-05-25T07:11:26.350Z,5.30
2018-05-25T07:13:53.885Z,4.90
2018-05-25T07:16:21.436Z,4.60
2018-05-25T07:18:49.019Z,4.60
2018-05-25T07:21:16.569Z,4.47
2018-05-25T07:23:44.081Z,4.40
2018-05-25T07:26:11.593Z,4.57
2018-05-25T07:28:39.177Z,4.40
2018-05-25T07:31:06.697Z,4.60
2018-05-25T07:33:34.579Z,4.60
2018-05-25T07:36:02.968Z,4.43
2018-05-25T07:38:30.527Z,4.20
2018-05-25T07:40:58.057Z,4.20
2018-05-25T07:43:25.549Z,4.50
2018-05-25T07:45:53.292Z,4.07
2018-05-25T07:48:20.819Z,4.30
2018-05-25T07:50:48.375Z,4.00
2018-05-25T07:53:15.855Z,4.30
2018-05-25T07:55:43.581Z,4.20
2018-05-25T07:58:11.112Z,3.93
2018-05-25T08:00:38.692Z,4.00
2018-05-25T08:03:06.995Z,4.13
2018-05-25T08:05:55.095Z,4.03
2018-05-25T08:08:23.954Z,4.30
2018-05-25T08:10:52.752Z,4.63
2018-05-25T08:13:20.307Z,3.67
2018-05-25T08:15:47.893Z,3.40
2018-05-25T08:18:16.213Z,3.80
2018-05-25T08:20:43.793Z,3.77
2018-05-25T08:23:11.436Z,3.50
2018-05-25T08:25:38.964Z,3.20
2018-05-25T08:28:06.550Z,3.47
2018-05-25T08:30:34.068Z,3.73
2018-05-25T08:33:02.813Z,3.40
2018-05-25T08:35:30.303Z,2.90
2018-05-25T08:37:57.830Z,3.30
2018-05-25T08:40:25.375Z,2.90
2018-05-25T08:42:55.351Z,3.40
2018-05-25T08:45:23.730Z,3.00
2018-05-25T08:47:52.065Z,3.00
2018-05-25T08:50:19.595Z,3.07
2018-05-25T08:52:47.101Z,3.10
2018-05-25T08:55:14.687Z,4.00
2018-05-25T08:57:42.181Z,3.20
2018-05-25T09:00:09.716Z,3.30
2018-05-25T09:02:37.231Z,3.30
2018-05-25T09:05:04.788Z,3.67
2018-05-25T09:07:32.309Z,3.13
2018-05-25T09:10:00.621Z,3.40
2018-05-25T09:12:28.935Z,3.17
2018-05-25T09:14:56.492Z,3.00
2018-05-25T09:17:24.827Z,3.70
2018-05-25T09:19:52.344Z,3.33
2018-05-25T09:22:19.940Z,3.60
2018-05-25T09:24:47.465Z,3.30
2018-05-25T09:27:15.060Z,3.10
2018-05-25T09:29:42.569Z,3.30
2018-05-25T09:32:10.091Z,3.47
2018-05-25T09:34:37.613Z,3.47
2018-05-25T09:37:05.171Z,3.30
2018-05-25T09:39:32.725Z,2.77
2018-05-25T09:42:00.297Z,2.73
2018-05-25T09:44:27.824Z,2.57
2018-05-25T09:46:55.326Z,2.80
2018-05-25T09:49:22.837Z,2.70
2018-05-25T09:51:51.156Z,2.40
2018-05-25T09:54:18.703Z,2.37
2018-05-25T09:56:57.961Z,2.57
2018-05-25T09:59:25.517Z,2.60
2018-05-25T10:01:53.025Z,2.70
2018-05-25T10:04:20.554Z,2.17
2018-05-25T10:06:48.064Z,2.80
2018-05-25T10:09:15.573Z,2.50
2018-05-25T10:11:43.105Z,2.70
2018-05-25T10:14:10.603Z,2.90
2018-05-25T10:16:38.914Z,2.20
2018-05-25T10:19:07.209Z,2.47
2018-05-25T10:21:34.744Z,2.13
2018-05-25T10:24:02.297Z,2.43
2018-05-25T10:26:29.833Z,2.10
2018-05-25T10:28:58.105Z,2.00
2018-05-25T10:31:26.378Z,2.13
2018-05-25T10:33:53.894Z,1.97
2018-05-25T10:36:21.398Z,2.17
2018-05-25T10:38:49.678Z,2.00
2018-05-25T10:41:17.943Z,1.83
2018-05-25T10:43:45.428Z,1.90
2018-05-25T10:46:12.925Z,2.00
2018-05-25T10:48:40.484Z,1.80
2018-05-25T10:51:07.973Z,1.80
2018-05-25T10:53:35.469Z,2.10
2018-05-25T10:56:03.064Z,1.80
2018-05-25T10:58:30.463Z,1.80
2018-05-25T11:00:58.742Z,1.60
2018-05-25T11:03:27.056Z,1.50
2018-05-25T11:05:54.557Z,1.70
2018-05-25T11:08:22.037Z,1.87
2018-05-25T11:10:50.292Z,1.70
2018-05-25T11:13:17.820Z,1.40
2018-05-25T11:15:45.312Z,1.70
2018-05-25T11:18:12.823Z,1.80
2018-05-25T11:20:40.343Z,1.70
2018-05-25T11:23:08.626Z,1.80
2018-05-25T11:25:36.898Z,1.70
2018-05-25T11:28:05.172Z,1.70
2018-05-25T11:30:33.430Z,1.60
2018-05-25T11:33:00.948Z,1.50
2018-05-25T11:35:28.426Z,1.53
2018-05-25T11:37:55.928Z,1.63
2018-05-25T11:40:23.447Z,1.50
2018-05-25T11:42:50.933Z,1.60
2018-05-25T11:45:19.230Z,1.60
2018-05-25T11:47:46.716Z,1.33
2018-05-25T11:50:14.329Z,1.50
2018-05-25T11:52:41.808Z,1.80
2018-05-25T11:55:09.310Z,1.70
2018-05-25T11:57:36.821Z,1.80
2018-05-25T12:00:04.355Z,1.90
2018-05-25T12:02:32.665Z,1.73
2018-05-25T12:05:00.157Z,1.60
2018-05-25T12:07:27.712Z,1.90
2018-05-25T12:09:55.247Z,1.80
2018-05-25T12:12:22.824Z,2.07
2018-05-25T12:14:50.430Z,1.80
2018-05-25T12:17:18.749Z,2.30
2018-05-25T12:19:46.245Z,2.00
2018-05-25T12:22:13.756Z,2.20
2018-05-25T12:24:41.310Z,2.53
2018-05-25T12:27:08.853Z,2.20
2018-05-25T12:29:36.417Z,2.30
2018-05-25T12:32:03.970Z,2.60
2018-05-25T12:34:31.566Z,2.13
2018-05-25T12:36:59.666Z,2.50
2018-05-25T12:39:27.175Z,7.97
2018-05-25T12:41:54.701Z,2.30
2018-05-25T12:44:22.202Z,2.20
2018-05-25T12:46:49.701Z,2.20
2018-05-25T12:49:17.241Z,2.20
2018-05-25T12:51:44.761Z,2.30
2018-05-25T12:54:12.258Z,2.37
2018-05-25T12:56:39.815Z,2.30
2018-05-25T12:59:07.326Z,2.30
2018-05-25T13:01:35.592Z,3.30
2018-05-25T13:04:03.886Z,2.70
2018-05-25T13:09:05.622Z,2.60
2018-05-25T13:11:50.099Z,2.60
2018-05-25T13:14:17.847Z,2.50
2018-05-25T13:16:45.362Z,2.40
2018-05-25T13:22:06.418Z,2.50
2018-05-25T13:24:33.980Z,2.00
2018-05-25T13:27:01.501Z,2.23
2018-05-25T13:29:29.033Z,2.33
2018-05-25T13:31:57.326Z,2.50
2018-05-25T13:34:24.865Z,2.30
2018-05-25T13:36:52.405Z,2.50
2018-05-25T13:39:20.666Z,2.70
2018-05-25T13:41:48.171Z,2.63
2018-05-25T13:44:15.695Z,2.37
2018-05-25T13:49:41.325Z,2.50
2018-05-25T13:52:08.827Z,2.63
2018-05-25T13:54:36.362Z,2.77
2018-05-25T13:57:04.638Z,3.13
2018-05-25T13:59:32.983Z,3.10
2018-05-25T14:02:00.553Z,3.20
2018-05-25T14:04:28.089Z,3.30
2018-05-25T14:06:55.613Z,2.97
2018-05-25T14:09:23.152Z,3.50
2018-05-25T14:11:51.461Z,3.20
2018-05-25T14:14:18.932Z,2.90
2018-05-25T14:16:46.439Z,3.17
2018-05-25T14:19:14.722Z,3.20
2018-05-25T14:21:43.033Z,3.50
2018-05-25T14:24:10.576Z,3.90
2018-05-25T14:26:38.067Z,3.80
2018-05-25T14:29:05.585Z,4.10
2018-05-25T14:31:33.165Z,3.90
2018-05-25T14:34:01.466Z,3.33
2018-05-25T14:36:28.991Z,3.00
2018-05-25T14:38:56.513Z,3.40
2018-05-25T14:41:24.108Z,3.20
2018-05-25T14:43:51.651Z,3.40
2018-05-25T14:46:19.209Z,3.40
2018-05-25T14:48:47.530Z,3.53
2018-05-25T14:51:15.080Z,3.30
2018-05-25T14:53:42.594Z,3.60
2018-05-25T14:56:10.922Z,3.80
2018-05-25T14:58:38.469Z,4.50
2018-05-25T15:01:05.989Z,3.63
2018-05-25T15:03:34.305Z,3.40
2018-05-25T15:06:02.284Z,3.57
2018-05-25T15:08:29.845Z,4.20
2018-05-25T15:10:57.332Z,3.40
2018-05-25T15:13:24.943Z,3.60
2018-05-25T15:15:52.455Z,3.53
2018-05-25T15:18:19.976Z,3.57
2018-05-25T15:20:48.496Z,3.20
2018-05-25T15:23:16.764Z,3.40
2018-05-25T15:25:44.298Z,3.60
2018-05-25T15:28:11.825Z,3.17
2018-05-25T15:30:39.371Z,3.40
2018-05-25T15:33:07.657Z,3.60
2018-05-25T15:35:35.174Z,3.53
2018-05-25T15:38:02.668Z,3.30
2018-05-25T15:46:17.232Z,3.20
2018-05-25T15:48:44.742Z,3.50
2018-05-25T15:51:12.230Z,2.87
2018-05-25T15:53:39.745Z,3.17
2018-05-25T15:56:07.286Z,3.43
2018-05-25T15:58:43.514Z,3.30
2018-05-25T16:01:11.037Z,3.23
2018-05-25T16:03:38.617Z,3.33
2018-05-25T16:06:06.168Z,3.40
2018-05-25T16:08:33.656Z,3.50
2018-05-25T16:11:01.162Z,2.90
2018-05-25T16:13:28.698Z,2.97
2018-05-25T16:15:57.014Z,3.00
2018-05-25T16:18:24.582Z,2.90
2018-05-25T16:20:52.151Z,3.20
2018-05-25T16:23:19.650Z,3.10
2018-05-25T16:25:47.921Z,3.13
2018-05-25T16:28:16.266Z,2.90
2018-05-25T16:31:09.308Z,3.33
2018-05-25T16:33:37.628Z,3.20
2018-05-25T16:36:05.960Z,3.07
2018-05-25T16:38:34.243Z,3.00
2018-05-25T16:41:01.745Z,3.23
2018-05-25T16:43:35.963Z,2.80
2018-05-25T16:46:04.256Z,3.50
2018-05-25T16:48:31.811Z,3.20
2018-05-25T16:51:00.159Z,3.37
2018-05-25T16:53:27.702Z,3.00
2018-05-25T16:55:55.280Z,4.37
2018-05-25T16:58:22.766Z,3.40
2018-05-25T17:00:50.345Z,3.63
2018-05-25T17:03:17.854Z,3.40
2018-05-25T17:05:45.379Z,3.53
2018-05-25T17:08:12.965Z,3.57
2018-05-25T17:10:40.490Z,3.83
2018-05-25T17:13:08.039Z,3.70
2018-05-25T17:15:35.616Z,3.60
2018-05-25T17:18:03.134Z,3.43
2018-05-25T17:20:31.487Z,3.73
2018-05-25T17:22:59.029Z,3.40
2018-05-25T17:25:26.559Z,3.77
2018-05-25T17:27:54.058Z,3.30
2018-05-25T17:30:21.602Z,3.40
2018-05-25T17:32:49.154Z,3.37
2018-05-25T17:35:16.685Z,3.40
2018-05-25T17:37:44.201Z,3.40
2018-05-25T17:46:16.042Z,4.30
2018-05-25T17:48:44.526Z,3.87
2018-05-25T17:51:12.071Z,3.43
2018-05-25T17:53:39.581Z,3.87
2018-05-25T17:56:07.893Z,3.83
2018-05-25T17:58:35.440Z,4.00
2018-05-25T18:03:55.860Z,3.77
2018-05-25T18:06:24.166Z,4.20
2018-05-25T18:08:51.681Z,3.70
2018-05-25T18:11:19.184Z,4.03
2018-05-25T18:13:46.708Z,3.90
2018-05-25T18:16:32.318Z,4.40
2018-05-25T18:19:12.247Z,4.30
2018-05-25T18:21:39.832Z,4.27
2018-05-25T18:24:07.344Z,3.87
2018-05-25T18:26:35.885Z,4.40
2018-05-25T18:32:08.849Z,3.63
2018-05-25T18:34:38.165Z,3.97
2018-05-25T18:37:05.685Z,4.33
2018-05-25T18:39:33.257Z,4.30
2018-05-25T18:42:00.823Z,4.43
2018-05-25T18:44:28.392Z,4.47
2018-05-25T18:46:56.692Z,4.43
2018-05-25T18:49:24.234Z,4.80
2018-05-25T18:52:04.935Z,4.53
2018-05-25T18:54:34.320Z,4.23
2018-05-25T18:57:01.869Z,4.60
2018-05-25T18:59:29.411Z,4.30
2018-05-25T19:01:57.681Z,4.40
2018-05-25T19:04:25.294Z,4.20
2018-05-25T19:06:53.766Z,4.53
2018-05-25T19:09:21.293Z,4.37
2018-05-25T19:11:49.593Z,4.90
2018-05-25T19:14:17.098Z,4.50
2018-05-25T19:16:44.610Z,4.90
2018-05-25T19:19:12.121Z,4.80
2018-05-25T19:21:39.637Z,4.83
2018-05-25T19:24:07.199Z,5.20
2018-05-25T19:26:34.723Z,4.80
2018-05-25T19:29:02.223Z,4.60
2018-05-25T19:31:31.757Z,4.77
2018-05-25T19:33:59.306Z,4.80
2018-05-25T19:36:26.884Z,5.33
2018-05-25T19:38:54.383Z,5.20
2018-05-25T19:41:21.969Z,4.40
2018-05-25T19:43:49.556Z,5.20
2018-05-25T19:46:17.085Z,5.10
2018-05-25T19:48:44.612Z,5.40
2018-05-25T19:51:12.172Z,5.20
2018-05-25T19:53:39.684Z,5.43
2018-05-25T19:56:07.185Z,5.40
2018-05-25T19:58:34.693Z,5.17
2018-05-25T20:01:02.216Z,5.27
2018-05-25T20:03:29.738Z,4.80
2018-05-25T20:06:14.637Z,5.47
2018-05-25T20:08:42.120Z,5.33
2018-05-25T20:11:09.646Z,5.10
2018-05-25T20:14:40.037Z,5.00
2018-05-25T20:17:07.604Z,5.40
2018-05-25T20:22:49.388Z,5.13
2018-05-25T20:25:16.910Z,4.93
2018-05-25T20:27:45.254Z,5.30
2018-05-25T20:30:12.806Z,5.07
2018-05-25T20:32:40.378Z,5.53
2018-05-25T20:35:08.724Z,5.90
2018-05-25T20:37:36.199Z,6.83
2018-05-25T20:40:03.705Z,7.37
2018-05-25T20:42:31.232Z,7.50
2018-05-25T20:44:59.551Z,6.13
2018-05-25T20:47:27.095Z,6.40
2018-05-25T20:49:54.616Z,5.33
2018-05-25T20:52:22.113Z,5.37
2018-05-25T20:54:49.674Z,5.40
2018-05-25T20:57:17.168Z,5.10
2018-05-25T20:59:44.690Z,5.43
2018-05-25T21:02:12.205Z,5.33
2018-05-25T21:04:39.753Z,5.90
2018-05-25T21:07:07.258Z,5.33
2018-05-25T21:09:34.785Z,5.40
2018-05-25T21:12:02.305Z,5.50
2018-05-25T21:14:29.817Z,5.47
2018-05-25T21:16:58.144Z,5.47
2018-05-25T21:19:25.634Z,5.80
2018-05-25T21:21:53.191Z,5.80
2018-05-25T21:24:20.698Z,6.20
2018-05-25T21:26:48.221Z,5.37
2018-05-25T21:29:16.518Z,5.90
2018-05-25T21:31:44.038Z,5.60
2018-05-25T21:34:11.568Z,6.23
2018-05-25T21:36:39.125Z,6.07
2018-05-25T21:39:06.649Z,6.20
2018-05-25T21:41:34.141Z,5.43
2018-05-25T21:44:01.662Z,5.60
2018-05-25T21:46:29.185Z,6.73
2018-05-25T21:48:56.719Z,6.47
2018-05-25T21:51:24.220Z,6.97
2018-05-25T21:53:51.698Z,6.73
2018-05-25T21:56:19.223Z,7.60
2018-05-25T21:58:46.721Z,7.10
2018-05-25T22:01:14.303Z,7.00
2018-05-25T22:03:41.793Z,6.37
2018-05-25T22:06:09.298Z,7.30
2018-05-25T22:08:36.844Z,6.60
2018-05-25T22:11:04.373Z,6.53
2018-05-25T22:13:31.940Z,6.73
2018-05-25T22:15:59.471Z,6.00
2018-05-25T22:18:27.000Z,7.20
2018-05-25T22:20:54.580Z,6.80
2018-05-25T22:23:22.140Z,7.27
2018-05-25T22:25:49.693Z,7.27
2018-05-25T22:28:17.211Z,6.60
2018-05-25T22:30:45.481Z,6.80
2018-05-25T22:33:13.766Z,7.43
2018-05-25T22:35:42.067Z,8.30
2018-05-25T22:38:09.558Z,7.90
2018-05-25T22:40:37.043Z,7.90
2018-05-25T22:43:17.400Z,7.33
2018-05-25T22:45:57.447Z,7.43
2018-05-25T22:48:36.870Z,7.83
2018-05-25T22:51:16.130Z,7.77
2018-05-25T22:53:49.693Z,8.10
2018-05-25T22:56:17.256Z,8.23
2018-05-25T22:58:44.773Z,8.67
2018-05-25T23:01:12.298Z,8.00
2018-05-25T23:03:39.835Z,8.73
2018-05-25T23:06:07.351Z,8.60
2018-05-25T23:08:34.879Z,9.37
2018-05-25T23:11:03.143Z,12.20
2018-05-25T23:13:30.672Z,9.90
2018-05-25T23:15:58.188Z,9.57
2018-05-25T23:18:25.713Z,9.13
2018-05-25T23:20:53.278Z,8.63
2018-05-25T23:23:20.800Z,9.80
2018-05-25T23:25:48.362Z,9.33
2018-05-25T23:28:15.950Z,9.00
2018-05-25T23:30:43.470Z,8.80
2018-05-25T23:33:10.980Z,10.43
2018-05-25T23:35:38.501Z,10.17
2018-05-25T23:38:06.001Z,8.90
2018-05-25T23:40:34.265Z,9.57
2018-05-25T23:43:01.829Z,10.80
2018-05-25T23:45:29.352Z,9.60
2018-05-25T23:47:56.938Z,9.57
2018-05-25T23:50:24.465Z,9.70
2018-05-25T23:52:51.995Z,9.90
2018-05-25T23:55:19.515Z,9.27
2018-05-25T23:57:47.037Z,9.40
